HAAB/ADD METAR and TAF weather

Enter ICAO airport designator
Station Type Date Time Source
HAAB METAR 2021/03/08 15:00 UTC NOAA

HAAB 081500Z 10012KT 9999 FEW025 23/01 Q1022


Station Type Date Time Source
HAAB Decoded METAR 2021/03/08 15:00 UTC NOAA

Addis Ababa, Ethiopia (HAAB) 08-59N 038-48E 2324M
Mar 08, 2021 - 10:00 AM EST / 2021.03.08 1500 UTC
Wind: from the E (100 degrees) at 14 MPH (12 KT):0
Visibility: greater than 7 mile(s):0
Sky conditions: mostly clear
Temperature: 73 F (23 C)
Dew Point: 33 F (1 C)
Relative Humidity: 23%
Pressure (altimeter): 30.18 in. Hg (1022 hPa)
ob: HAAB 081500Z 10012KT 9999 FEW025 23/01 Q1022
cycle: 15

Station Type Date Time Source
HAAB TAF 2021/03/08 12:55 UTC NOAA

TAF HAAB 080930Z 0812/0918 16007G18KT 9999 FEW025 FEW080
BECMG 0813/0817 13010G22KT 9999 SCT025 SCT080 TAF HADR 080930Z 0812/0918 36006G18KT C A V O K TAF HAGN 080930Z 0812/0918 34007G18KT 9999 FEW028 SCT080
BECMG 0812/099 SCT030 BKN080

Example: see airport list